sensor_id;sensor_type;location;lat;lon;timestamp;pressure;altitude;pressure_sealevel;temperature;humidity
39209;BME280;24929;51.982;4.664;2023-02-03T00:00:48;78039.03;;;-143.36;nan
39209;BME280;24929;51.982;4.664;2023-02-03T00:03:13;78077.19;;;-143.36;nan
39209;BME280;24929;51.982;4.664;2023-02-03T00:05:39;77862.38;;;-143.36;nan
39209;BME280;24929;51.982;4.664;2023-02-03T00:08:06;77870.41;;;-143.36;nan
39209;BME280;24929;51.982;4.664;2023-02-03T00:10:33;77828.25;;;-143.36;nan
39209;BME280;24929;51.982;4.664;2023-02-03T00:12:58;77876.44;;;-143.36;nan
39209;BME280;24929;51.982;4.664;2023-02-03T00:15:24;77812.19;;;-143.36;nan
39209;BME280;24929;51.982;4.664;2023-02-03T00:17:51;77854.34;;;-143.36;nan
39209;BME280;24929;51.982;4.664;2023-02-03T00:20:16;77846.31;;;-143.36;nan
39209;BME280;24929;51.982;4.664;2023-02-03T00:22:42;77940.66;;;-143.36;nan
39209;BME280;24929;51.982;4.664;2023-02-03T00:25:07;77878.44;;;-143.36;nan
39209;BME280;24929;51.982;4.664;2023-02-03T00:27:33;78004.91;;;-143.36;nan
39209;BME280;24929;51.982;4.664;2023-02-03T00:29:58;77980.81;;;-143.36;nan
39209;BME280;24929;51.982;4.664;2023-02-03T00:32:23;77950.69;;;-143.36;nan
39209;BME280;24929;51.982;4.664;2023-02-03T00:34:49;77794.13;;;-143.36;nan
39209;BME280;24929;51.982;4.664;2023-02-03T00:37:14;77784.09;;;-143.36;nan
39209;BME280;24929;51.982;4.664;2023-02-03T00:39:39;77770.03;;;-143.36;nan
39209;BME280;24929;51.982;4.664;2023-02-03T00:42:05;77812.19;;;-143.36;nan
39209;BME280;24929;51.982;4.664;2023-02-03T00:44:31;77844.31;;;-143.36;nan
39209;BME280;24929;51.982;4.664;2023-02-03T00:46:56;77812.19;;;-143.36;nan
39209;BME280;24929;51.982;4.664;2023-02-03T00:49:22;77782.09;;;-143.36;nan
39209;BME280;24929;51.982;4.664;2023-02-03T00:51:48;77766.03;;;-143.36;nan
39209;BME280;24929;51.982;4.664;2023-02-03T00:54:13;77756.00;;;-143.36;nan
39209;BME280;24929;51.982;4.664;2023-02-03T00:56:39;77753.97;;;-143.36;nan
39209;BME280;24929;51.982;4.664;2023-02-03T00:59:05;77753.97;;;-143.36;nan
39209;BME280;24929;51.982;4.664;2023-02-03T01:01:31;77727.88;;;-143.36;nan
39209;BME280;24929;51.982;4.664;2023-02-03T01:03:56;77735.91;;;-143.36;nan
39209;BME280;24929;51.982;4.664;2023-02-03T01:06:22;77715.84;;;-143.36;nan
39209;BME280;24929;51.982;4.664;2023-02-03T01:08:48;77713.84;;;-143.36;nan
39209;BME280;24929;51.982;4.664;2023-02-03T01:11:20;77673.69;;;-143.36;nan
39209;BME280;24929;51.982;4.664;2023-02-03T01:13:50;77651.59;;;-143.36;nan
39209;BME280;24929;51.982;4.664;2023-02-03T01:16:18;77611.47;;;-143.36;nan
39209;BME280;24929;51.982;4.664;2023-02-03T01:18:44;77697.78;;;-143.36;nan
39209;BME280;24929;51.982;4.664;2023-02-03T01:21:12;77683.72;;;-143.36;nan
39209;BME280;24929;51.982;4.664;2023-02-03T01:23:38;77719.84;;;-143.36;nan
39209;BME280;24929;51.982;4.664;2023-02-03T01:26:05;77683.72;;;-143.36;nan
39209;BME280;24929;51.982;4.664;2023-02-03T01:28:31;77703.81;;;-143.36;nan
39209;BME280;24929;51.982;4.664;2023-02-03T01:30:56;77703.81;;;-143.36;nan
39209;BME280;24929;51.982;4.664;2023-02-03T01:33:22;77681.72;;;-143.36;nan
39209;BME280;24929;51.982;4.664;2023-02-03T01:35:47;77675.69;;;-143.36;nan
39209;BME280;24929;51.982;4.664;2023-02-03T01:38:12;77691.75;;;-143.36;nan
39209;BME280;24929;51.982;4.664;2023-02-03T01:40:42;77613.47;;;-143.36;nan
39209;BME280;24929;51.982;4.664;2023-02-03T01:43:09;77673.69;;;-143.36;nan
39209;BME280;24929;51.982;4.664;2023-02-03T01:45:35;77677.69;;;-143.36;nan
39209;BME280;24929;51.982;4.664;2023-02-03T01:48:00;77671.69;;;-143.36;nan
39209;BME280;24929;51.982;4.664;2023-02-03T01:50:30;77621.50;;;-143.36;nan
39209;BME280;24929;51.982;4.664;2023-02-03T01:53:00;77631.53;;;-143.36;nan
39209;BME280;24929;51.982;4.664;2023-02-03T01:55:32;77613.47;;;-143.36;nan
39209;BME280;24929;51.982;4.664;2023-02-03T01:58:03;77623.50;;;-143.36;nan
39209;BME280;24929;51.982;4.664;2023-02-03T02:00:30;77709.81;;;-143.36;nan
39209;BME280;24929;51.982;4.664;2023-02-03T02:02:58;77631.53;;;-143.36;nan
39209;BME280;24929;51.982;4.664;2023-02-03T02:05:35;77685.72;;;-143.36;nan
39209;BME280;24929;51.982;4.664;2023-02-03T02:08:03;77693.75;;;-143.36;nan
39209;BME280;24929;51.982;4.664;2023-02-03T02:10:30;77661.66;;;-143.36;nan
39209;BME280;24929;51.982;4.664;2023-02-03T02:12:59;77657.63;;;-143.36;nan
39209;BME280;24929;51.982;4.664;2023-02-03T02:18:53;77657.63;;;-143.36;nan
39209;BME280;24929;51.982;4.664;2023-02-03T02:30:53;77695.78;;;-143.36;nan
39209;BME280;24929;51.982;4.664;2023-02-03T02:33:56;77695.78;;;-143.36;nan
39209;BME280;24929;51.982;4.664;2023-02-03T02:36:30;77689.75;;;-143.36;nan
39209;BME280;24929;51.982;4.664;2023-02-03T02:38:58;77770.03;;;-143.36;nan
39209;BME280;24929;51.982;4.664;2023-02-03T02:42:31;77727.88;;;-143.36;nan
39209;BME280;24929;51.982;4.664;2023-02-03T02:44:40;77723.88;;;-143.36;nan
39209;BME280;24929;51.982;4.664;2023-02-03T02:47:21;77713.84;;;-143.36;nan
39209;BME280;24929;51.982;4.664;2023-02-03T02:49:58;77892.50;;;-143.36;nan
39209;BME280;24929;51.982;4.664;2023-02-03T02:52:27;77828.25;;;-143.36;nan
39209;BME280;24929;51.982;4.664;2023-02-03T02:54:57;77834.28;;;-143.36;nan
39209;BME280;24929;51.982;4.664;2023-02-03T02:57:25;77717.84;;;-143.36;nan
39209;BME280;24929;51.982;4.664;2023-02-03T02:59:52;77693.75;;;-143.36;nan
39209;BME280;24929;51.982;4.664;2023-02-03T03:02:18;77699.78;;;-143.36;nan
39209;BME280;24929;51.982;4.664;2023-02-03T03:04:45;77711.81;;;-143.36;nan
39209;BME280;24929;51.982;4.664;2023-02-03T03:07:18;77641.56;;;-143.36;nan
39209;BME280;24929;51.982;4.664;2023-02-03T03:09:48;77609.47;;;-143.36;nan
39209;BME280;24929;51.982;4.664;2023-02-03T03:12:25;77671.69;;;-143.36;nan
39209;BME280;24929;51.982;4.664;2023-02-03T03:14:56;77802.16;;;-143.36;nan
39209;BME280;24929;51.982;4.664;2023-02-03T03:17:29;77713.84;;;-143.36;nan
39209;BME280;24929;51.982;4.664;2023-02-03T03:20:00;77673.69;;;-143.36;nan
39209;BME280;24929;51.982;4.664;2023-02-03T03:22:30;77723.88;;;-143.36;nan
39209;BME280;24929;51.982;4.664;2023-02-03T03:25:11;77663.66;;;-143.36;nan
39209;BME280;24929;51.982;4.664;2023-02-03T03:27:43;77673.69;;;-143.36;nan
39209;BME280;24929;51.982;4.664;2023-02-03T03:30:16;77675.69;;;-143.36;nan
39209;BME280;24929;51.982;4.664;2023-02-03T03:32:42;77766.03;;;-143.36;nan
39209;BME280;24929;51.982;4.664;2023-02-03T03:35:09;77745.94;;;-143.36;nan
39209;BME280;24929;51.982;4.664;2023-02-03T03:40:31;77677.69;;;-143.36;nan
39209;BME280;24929;51.982;4.664;2023-02-03T03:43:02;77743.94;;;-143.36;nan
39209;BME280;24929;51.982;4.664;2023-02-03T03:45:36;77753.97;;;-143.36;nan
39209;BME280;24929;51.982;4.664;2023-02-03T03:48:15;77860.38;;;-143.36;nan
39209;BME280;24929;51.982;4.664;2023-02-03T03:50:55;77701.78;;;-143.36;nan
39209;BME280;24929;51.982;4.664;2023-02-03T03:53:22;77788.09;;;-143.36;nan
39209;BME280;24929;51.982;4.664;2023-02-03T03:55:51;77733.91;;;-143.36;nan
39209;BME280;24929;51.982;4.664;2023-02-03T03:58:25;77723.88;;;-143.36;nan
39209;BME280;24929;51.982;4.664;2023-02-03T04:00:55;77737.91;;;-143.36;nan
39209;BME280;24929;51.982;4.664;2023-02-03T04:03:24;77802.16;;;-143.36;nan
39209;BME280;24929;51.982;4.664;2023-02-03T04:05:52;77802.16;;;-143.36;nan
39209;BME280;24929;51.982;4.664;2023-02-03T04:08:17;77768.03;;;-143.36;nan
39209;BME280;24929;51.982;4.664;2023-02-03T04:10:43;77669.69;;;-143.36;nan
39209;BME280;24929;51.982;4.664;2023-02-03T04:13:10;77609.47;;;-143.36;nan
39209;BME280;24929;51.982;4.664;2023-02-03T04:15:36;77631.53;;;-143.36;nan
39209;BME280;24929;51.982;4.664;2023-02-03T04:18:02;77651.59;;;-143.36;nan
39209;BME280;24929;51.982;4.664;2023-02-03T04:20:29;77609.47;;;-143.36;nan
39209;BME280;24929;51.982;4.664;2023-02-03T04:22:55;77695.78;;;-143.36;nan
39209;BME280;24929;51.982;4.664;2023-02-03T04:25:21;77651.59;;;-143.36;nan
39209;BME280;24929;51.982;4.664;2023-02-03T04:27:47;77645.59;;;-143.36;nan
39209;BME280;24929;51.982;4.664;2023-02-03T04:30:13;77601.44;;;-143.36;nan
39209;BME280;24929;51.982;4.664;2023-02-03T04:32:38;77657.63;;;-143.36;nan
39209;BME280;24929;51.982;4.664;2023-02-03T04:35:07;77599.41;;;-143.36;nan
39209;BME280;24929;51.982;4.664;2023-02-03T04:37:33;77637.56;;;-143.36;nan
39209;BME280;24929;51.982;4.664;2023-02-03T04:39:58;77647.59;;;-143.36;nan
39209;BME280;24929;51.982;4.664;2023-02-03T04:42:24;77627.53;;;-143.36;nan
39209;BME280;24929;51.982;4.664;2023-02-03T04:44:50;77651.59;;;-143.36;nan
39209;BME280;24929;51.982;4.664;2023-02-03T04:47:16;77657.63;;;-143.36;nan
39209;BME280;24929;51.982;4.664;2023-02-03T04:49:42;77663.66;;;-143.36;nan
39209;BME280;24929;51.982;4.664;2023-02-03T04:52:07;77651.59;;;-143.36;nan
39209;BME280;24929;51.982;4.664;2023-02-03T04:54:33;77641.56;;;-143.36;nan
39209;BME280;24929;51.982;4.664;2023-02-03T04:56:58;77655.63;;;-143.36;nan
39209;BME280;24929;51.982;4.664;2023-02-03T04:59:24;77665.66;;;-143.36;nan
39209;BME280;24929;51.982;4.664;2023-02-03T05:01:49;77649.59;;;-143.36;nan
39209;BME280;24929;51.982;4.664;2023-02-03T05:04:17;77575.34;;;-143.36;nan
39209;BME280;24929;51.982;4.664;2023-02-03T05:06:43;77635.56;;;-143.36;nan
39209;BME280;24929;51.982;4.664;2023-02-03T05:09:08;77617.47;;;-143.36;nan
39209;BME280;24929;51.982;4.664;2023-02-03T05:11:33;77611.47;;;-143.36;nan
39209;BME280;24929;51.982;4.664;2023-02-03T05:13:59;77617.47;;;-143.36;nan
39209;BME280;24929;51.982;4.664;2023-02-03T05:16:24;77651.59;;;-143.36;nan
39209;BME280;24929;51.982;4.664;2023-02-03T05:18:50;77639.56;;;-143.36;nan
39209;BME280;24929;51.982;4.664;2023-02-03T05:21:15;77629.53;;;-143.36;nan
39209;BME280;24929;51.982;4.664;2023-02-03T05:23:41;77625.50;;;-143.36;nan
39209;BME280;24929;51.982;4.664;2023-02-03T05:26:06;77655.63;;;-143.36;nan
39209;BME280;24929;51.982;4.664;2023-02-03T05:28:32;77629.53;;;-143.36;nan
39209;BME280;24929;51.982;4.664;2023-02-03T05:30:58;77621.50;;;-143.36;nan
39209;BME280;24929;51.982;4.664;2023-02-03T05:33:23;77693.75;;;-143.36;nan
39209;BME280;24929;51.982;4.664;2023-02-03T05:35:49;77655.63;;;-143.36;nan
39209;BME280;24929;51.982;4.664;2023-02-03T05:38:14;77681.72;;;-143.36;nan
39209;BME280;24929;51.982;4.664;2023-02-03T05:40:39;77733.91;;;-143.36;nan
39209;BME280;24929;51.982;4.664;2023-02-03T05:43:23;77717.84;;;-143.36;nan
39209;BME280;24929;51.982;4.664;2023-02-03T05:45:49;77685.72;;;-143.36;nan
39209;BME280;24929;51.982;4.664;2023-02-03T05:48:14;77808.19;;;-143.36;nan
39209;BME280;24929;51.982;4.664;2023-02-03T05:50:40;77826.25;;;-143.36;nan
39209;BME280;24929;51.982;4.664;2023-02-03T05:53:05;77800.16;;;-143.36;nan
39209;BME280;24929;51.982;4.664;2023-02-03T05:55:32;77758.00;;;-143.36;nan
39209;BME280;24929;51.982;4.664;2023-02-03T05:57:58;77760.00;;;-143.36;nan
39209;BME280;24929;51.982;4.664;2023-02-03T06:00:26;77868.41;;;-143.36;nan
39209;BME280;24929;51.982;4.664;2023-02-03T06:02:52;77780.06;;;-143.36;nan
39209;BME280;24929;51.982;4.664;2023-02-03T06:05:19;77784.09;;;-143.36;nan
39209;BME280;24929;51.982;4.664;2023-02-03T06:07:45;77830.25;;;-143.36;nan
39209;BME280;24929;51.982;4.664;2023-02-03T06:10:10;77850.34;;;-143.36;nan
39209;BME280;24929;51.982;4.664;2023-02-03T06:12:37;77796.13;;;-143.36;nan
39209;BME280;24929;51.982;4.664;2023-02-03T06:15:03;77749.97;;;-143.36;nan
39209;BME280;24929;51.982;4.664;2023-02-03T06:17:28;77770.03;;;-143.36;nan
39209;BME280;24929;51.982;4.664;2023-02-03T06:19:54;77691.75;;;-143.36;nan
39209;BME280;24929;51.982;4.664;2023-02-03T06:22:19;77800.16;;;-143.36;nan
39209;BME280;24929;51.982;4.664;2023-02-03T06:24:44;77772.03;;;-143.36;nan
39209;BME280;24929;51.982;4.664;2023-02-03T06:27:12;77764.00;;;-143.36;nan
39209;BME280;24929;51.982;4.664;2023-02-03T06:29:38;77758.00;;;-143.36;nan
39209;BME280;24929;51.982;4.664;2023-02-03T06:32:03;77768.03;;;-143.36;nan
39209;BME280;24929;51.982;4.664;2023-02-03T06:34:29;77790.13;;;-143.36;nan
39209;BME280;24929;51.982;4.664;2023-02-03T06:36:54;77816.22;;;-143.36;nan
39209;BME280;24929;51.982;4.664;2023-02-03T06:39:19;77800.16;;;-143.36;nan
39209;BME280;24929;51.982;4.664;2023-02-03T06:41:45;77804.16;;;-143.36;nan
39209;BME280;24929;51.982;4.664;2023-02-03T06:44:10;77854.34;;;-143.36;nan
39209;BME280;24929;51.982;4.664;2023-02-03T06:46:36;77850.34;;;-143.36;nan
39209;BME280;24929;51.982;4.664;2023-02-03T06:49:01;77798.13;;;-143.36;nan
39209;BME280;24929;51.982;4.664;2023-02-03T06:51:27;77804.16;;;-143.36;nan
39209;BME280;24929;51.982;4.664;2023-02-03T06:53:52;77804.16;;;-143.36;nan
39209;BME280;24929;51.982;4.664;2023-02-03T06:56:17;77792.13;;;-143.36;nan
39209;BME280;24929;51.982;4.664;2023-02-03T06:58:43;77760.00;;;-143.36;nan
39209;BME280;24929;51.982;4.664;2023-02-03T07:01:09;77814.19;;;-143.36;nan
39209;BME280;24929;51.982;4.664;2023-02-03T07:10:55;77786.09;;;-143.36;nan
39209;BME280;24929;51.982;4.664;2023-02-03T07:13:21;77862.38;;;-143.36;nan
39209;BME280;24929;51.982;4.664;2023-02-03T07:15:46;77812.19;;;-143.36;nan
39209;BME280;24929;51.982;4.664;2023-02-03T07:18:11;77828.25;;;-143.36;nan
39209;BME280;24929;51.982;4.664;2023-02-03T07:20:37;77850.34;;;-143.36;nan
39209;BME280;24929;51.982;4.664;2023-02-03T07:23:02;77824.25;;;-143.36;nan
39209;BME280;24929;51.982;4.664;2023-02-03T07:25:29;77772.03;;;-143.36;nan
39209;BME280;24929;51.982;4.664;2023-02-03T07:27:55;77876.44;;;-143.36;nan
39209;BME280;24929;51.982;4.664;2023-02-03T07:30:21;77840.28;;;-143.36;nan
39209;BME280;24929;51.982;4.664;2023-02-03T07:32:51;77808.19;;;-143.36;nan
39209;BME280;24929;51.982;4.664;2023-02-03T07:35:16;77820.22;;;-143.36;nan
39209;BME280;24929;51.982;4.664;2023-02-03T07:37:42;77796.13;;;-143.36;nan
39209;BME280;24929;51.982;4.664;2023-02-03T07:40:09;77844.31;;;-143.36;nan
39209;BME280;24929;51.982;4.664;2023-02-03T07:42:37;77800.16;;;-143.36;nan
39209;BME280;24929;51.982;4.664;2023-02-03T07:45:05;77830.25;;;-143.36;nan
39209;BME280;24929;51.982;4.664;2023-02-03T07:47:30;77858.38;;;-143.36;nan
39209;BME280;24929;51.982;4.664;2023-02-03T07:49:55;77838.28;;;-143.36;nan
39209;BME280;24929;51.982;4.664;2023-02-03T07:52:21;77826.25;;;-143.36;nan
39209;BME280;24929;51.982;4.664;2023-02-03T07:54:46;77828.25;;;-143.36;nan
39209;BME280;24929;51.982;4.664;2023-02-03T07:57:11;77798.13;;;-143.36;nan
39209;BME280;24929;51.982;4.664;2023-02-03T07:59:37;77794.13;;;-143.36;nan
39209;BME280;24929;51.982;4.664;2023-02-03T08:02:02;77784.09;;;-143.36;nan
39209;BME280;24929;51.982;4.664;2023-02-03T08:04:27;77840.28;;;-143.36;nan
39209;BME280;24929;51.982;4.664;2023-02-03T08:06:53;77764.00;;;-143.36;nan
39209;BME280;24929;51.982;4.664;2023-02-03T08:09:19;77737.91;;;-143.36;nan
39209;BME280;24929;51.982;4.664;2023-02-03T08:11:44;77804.16;;;-143.36;nan
39209;BME280;24929;51.982;4.664;2023-02-03T08:14:10;77828.25;;;-143.36;nan
39209;BME280;24929;51.982;4.664;2023-02-03T08:16:35;77816.22;;;-143.36;nan
39209;BME280;24929;51.982;4.664;2023-02-03T08:19:01;77824.25;;;-143.36;nan
39209;BME280;24929;51.982;4.664;2023-02-03T08:21:27;77796.13;;;-143.36;nan
39209;BME280;24929;51.982;4.664;2023-02-03T08:23:53;77830.25;;;-143.36;nan
39209;BME280;24929;51.982;4.664;2023-02-03T08:26:20;77798.13;;;-143.36;nan
39209;BME280;24929;51.982;4.664;2023-02-03T08:28:49;77727.88;;;-143.36;nan
39209;BME280;24929;51.982;4.664;2023-02-03T08:31:15;77802.16;;;-143.36;nan
39209;BME280;24929;51.982;4.664;2023-02-03T08:33:41;77848.31;;;-143.36;nan
39209;BME280;24929;51.982;4.664;2023-02-03T08:36:08;77828.25;;;-143.36;nan
39209;BME280;24929;51.982;4.664;2023-02-03T08:38:36;77774.06;;;-143.36;nan
39209;BME280;24929;51.982;4.664;2023-02-03T08:41:07;77743.94;;;-143.36;nan
39209;BME280;24929;51.982;4.664;2023-02-03T08:43:33;77818.22;;;-143.36;nan
39209;BME280;24929;51.982;4.664;2023-02-03T08:46:02;77741.94;;;-143.36;nan
39209;BME280;24929;51.982;4.664;2023-02-03T08:48:28;77800.16;;;-143.36;nan
39209;BME280;24929;51.982;4.664;2023-02-03T08:50:53;77778.06;;;-143.36;nan
39209;BME280;24929;51.982;4.664;2023-02-03T08:53:19;77800.16;;;-143.36;nan
39209;BME280;24929;51.982;4.664;2023-02-03T08:55:45;77852.34;;;-143.36;nan
39209;BME280;24929;51.982;4.664;2023-02-03T08:58:11;77840.28;;;-143.36;nan
39209;BME280;24929;51.982;4.664;2023-02-03T09:00:37;77820.22;;;-143.36;nan
39209;BME280;24929;51.982;4.664;2023-02-03T09:03:03;77788.09;;;-143.36;nan
39209;BME280;24929;51.982;4.664;2023-02-03T09:05:31;77713.84;;;-143.36;nan
39209;BME280;24929;51.982;4.664;2023-02-03T09:07:57;77711.81;;;-143.36;nan
39209;BME280;24929;51.982;4.664;2023-02-03T09:10:23;77669.69;;;-143.36;nan
39209;BME280;24929;51.982;4.664;2023-02-03T09:12:48;77677.69;;;-143.36;nan
39209;BME280;24929;51.982;4.664;2023-02-03T09:15:14;77687.75;;;-143.36;nan
39209;BME280;24929;51.982;4.664;2023-02-03T09:17:39;77808.19;;;-143.36;nan
39209;BME280;24929;51.982;4.664;2023-02-03T09:20:06;77824.25;;;-143.36;nan
39209;BME280;24929;51.982;4.664;2023-02-03T09:22:32;77844.31;;;-143.36;nan
39209;BME280;24929;51.982;4.664;2023-02-03T09:24:57;77820.22;;;-143.36;nan
39209;BME280;24929;51.982;4.664;2023-02-03T09:27:23;77828.25;;;-143.36;nan
39209;BME280;24929;51.982;4.664;2023-02-03T09:36:45;77788.09;;;-143.36;nan
39209;BME280;24929;51.982;4.664;2023-02-03T09:39:12;77866.38;;;-143.36;nan
39209;BME280;24929;51.982;4.664;2023-02-03T09:47:21;77725.88;;;-143.36;nan
39209;BME280;24929;51.982;4.664;2023-02-03T09:50:13;77657.63;;;-143.36;nan
39209;BME280;24929;51.982;4.664;2023-02-03T09:52:50;77782.09;;;-143.36;nan
39209;BME280;24929;51.982;4.664;2023-02-03T09:58:12;77780.06;;;-143.36;nan
39209;BME280;24929;51.982;4.664;2023-02-03T10:00:42;77824.25;;;-143.36;nan
39209;BME280;24929;51.982;4.664;2023-02-03T10:08:55;77635.56;;;-143.36;nan
39209;BME280;24929;51.982;4.664;2023-02-03T10:11:36;77695.78;;;-143.36;nan
39209;BME280;24929;51.982;4.664;2023-02-03T10:17:51;77629.53;;;-143.36;nan
39209;BME280;24929;51.982;4.664;2023-02-03T10:20:25;77721.88;;;-143.36;nan
39209;BME280;24929;51.982;4.664;2023-02-03T10:22:57;77715.84;;;-143.36;nan
39209;BME280;24929;51.982;4.664;2023-02-03T10:25:41;77725.88;;;-143.36;nan
39209;BME280;24929;51.982;4.664;2023-02-03T10:52:29;77643.56;;;-143.36;nan
39209;BME280;24929;51.982;4.664;2023-02-03T10:54:55;77753.97;;;-143.36;nan
39209;BME280;24929;51.982;4.664;2023-02-03T10:57:24;77667.66;;;-143.36;nan
39209;BME280;24929;51.982;4.664;2023-02-03T10:59:50;77713.84;;;-143.36;nan
39209;BME280;24929;51.982;4.664;2023-02-03T11:02:29;77615.47;;;-143.36;nan
39209;BME280;24929;51.982;4.664;2023-02-03T11:05:31;77667.66;;;-143.36;nan
39209;BME280;24929;51.982;4.664;2023-02-03T11:07:56;77701.78;;;-143.36;nan
39209;BME280;24929;51.982;4.664;2023-02-03T11:12:59;77597.41;;;-143.36;nan
39209;BME280;24929;51.982;4.664;2023-02-03T11:15:36;77543.22;;;-143.36;nan
39209;BME280;24929;51.982;4.664;2023-02-03T11:18:02;77565.28;;;-143.36;nan
39209;BME280;24929;51.982;4.664;2023-02-03T11:20:28;77655.63;;;-143.36;nan
39209;BME280;24929;51.982;4.664;2023-02-03T11:22:54;77591.38;;;-143.36;nan
39209;BME280;24929;51.982;4.664;2023-02-03T11:25:27;77589.38;;;-143.36;nan
39209;BME280;24929;51.982;4.664;2023-02-03T11:28:04;77643.56;;;-143.36;nan
39209;BME280;24929;51.982;4.664;2023-02-03T11:30:37;77559.28;;;-143.36;nan
39209;BME280;24929;51.982;4.664;2023-02-03T12:07:10;77529.16;;;-143.36;nan
39209;BME280;24929;51.982;4.664;2023-02-03T12:15:15;77487.00;;;-143.36;nan
39209;BME280;24929;51.982;4.664;2023-02-03T12:26:24;77563.28;;;-143.36;nan
39209;BME280;24929;51.982;4.664;2023-02-03T12:29:05;77585.38;;;-143.36;nan
39209;BME280;24929;51.982;4.664;2023-02-03T12:31:59;77557.25;;;-143.36;nan
39209;BME280;24929;51.982;4.664;2023-02-03T12:37:05;77527.16;;;-143.36;nan
39209;BME280;24929;51.982;4.664;2023-02-03T12:39:48;77527.16;;;-143.36;nan
39209;BME280;24929;51.982;4.664;2023-02-03T12:42:30;77603.44;;;-143.36;nan
39209;BME280;24929;51.982;4.664;2023-02-03T12:45:05;77621.50;;;-143.36;nan
39209;BME280;24929;51.982;4.664;2023-02-03T12:47:51;77569.31;;;-143.36;nan
39209;BME280;24929;51.982;4.664;2023-02-03T12:50:28;77553.25;;;-143.36;nan
39209;BME280;24929;51.982;4.664;2023-02-03T12:53:20;77525.16;;;-143.36;nan
39209;BME280;24929;51.982;4.664;2023-02-03T12:58:56;77569.31;;;-143.36;nan
39209;BME280;24929;51.982;4.664;2023-02-03T13:01:33;77625.50;;;-143.36;nan
39209;BME280;24929;51.982;4.664;2023-02-03T13:04:14;77583.34;;;-143.36;nan
39209;BME280;24929;51.982;4.664;2023-02-03T13:17:05;77681.72;;;-143.36;nan
39209;BME280;24929;51.982;4.664;2023-02-03T13:19:27;77647.59;;;-143.36;nan
39209;BME280;24929;51.982;4.664;2023-02-03T13:21:54;77711.81;;;-143.36;nan
39209;BME280;24929;51.982;4.664;2023-02-03T13:24:22;77659.63;;;-143.36;nan
39209;BME280;24929;51.982;4.664;2023-02-03T13:27:21;77605.44;;;-143.36;nan
39209;BME280;24929;51.982;4.664;2023-02-03T13:40:30;77699.78;;;-143.36;nan
39209;BME280;24929;51.982;4.664;2023-02-03T13:43:02;77681.72;;;-143.36;nan
39209;BME280;24929;51.982;4.664;2023-02-03T13:45:40;77705.81;;;-143.36;nan
39209;BME280;24929;51.982;4.664;2023-02-03T13:50:41;77749.97;;;-143.36;nan
39209;BME280;24929;51.982;4.664;2023-02-03T13:53:15;77719.84;;;-143.36;nan
39209;BME280;24929;51.982;4.664;2023-02-03T13:55:59;77711.81;;;-143.36;nan
39209;BME280;24929;51.982;4.664;2023-02-03T13:58:28;77707.81;;;-143.36;nan
39209;BME280;24929;51.982;4.664;2023-02-03T14:05:53;77800.16;;;-143.36;nan
39209;BME280;24929;51.982;4.664;2023-02-03T14:19:09;77906.53;;;-143.36;nan
39209;BME280;24929;51.982;4.664;2023-02-03T14:24:13;77876.44;;;-143.36;nan
39209;BME280;24929;51.982;4.664;2023-02-03T14:26:42;77912.56;;;-143.36;nan
39209;BME280;24929;51.982;4.664;2023-02-03T14:29:10;77886.47;;;-143.36;nan
39209;BME280;24929;51.982;4.664;2023-02-03T14:32:03;77820.22;;;-143.36;nan
39209;BME280;24929;51.982;4.664;2023-02-03T14:34:35;77870.41;;;-143.36;nan
39209;BME280;24929;51.982;4.664;2023-02-03T14:39:49;77862.38;;;-143.36;nan
39209;BME280;24929;51.982;4.664;2023-02-03T14:42:53;77854.34;;;-143.36;nan
39209;BME280;24929;51.982;4.664;2023-02-03T15:02:23;77868.41;;;-143.36;nan
39209;BME280;24929;51.982;4.664;2023-02-03T15:10:18;77804.16;;;-143.36;nan
39209;BME280;24929;51.982;4.664;2023-02-03T15:12:52;77824.25;;;-143.36;nan
39209;BME280;24929;51.982;4.664;2023-02-03T15:15:20;77858.38;;;-143.36;nan
39209;BME280;24929;51.982;4.664;2023-02-03T15:17:47;77848.31;;;-143.36;nan
39209;BME280;24929;51.982;4.664;2023-02-03T15:22:47;77900.53;;;-143.36;nan
39209;BME280;24929;51.982;4.664;2023-02-03T15:25:16;77868.41;;;-143.36;nan
39209;BME280;24929;51.982;4.664;2023-02-03T15:27:42;77866.38;;;-143.36;nan
39209;BME280;24929;51.982;4.664;2023-02-03T15:30:23;77812.19;;;-143.36;nan
39209;BME280;24929;51.982;4.664;2023-02-03T15:33:06;77796.13;;;-143.36;nan
39209;BME280;24929;51.982;4.664;2023-02-03T15:35:36;77840.28;;;-143.36;nan
39209;BME280;24929;51.982;4.664;2023-02-03T15:38:19;77878.44;;;-143.36;nan
39209;BME280;24929;51.982;4.664;2023-02-03T15:40:51;77808.19;;;-143.36;nan
39209;BME280;24929;51.982;4.664;2023-02-03T15:43:30;77870.41;;;-143.36;nan
39209;BME280;24929;51.982;4.664;2023-02-03T15:48:47;77800.16;;;-143.36;nan
39209;BME280;24929;51.982;4.664;2023-02-03T15:54:16;77852.34;;;-143.36;nan
39209;BME280;24929;51.982;4.664;2023-02-03T15:56:54;77864.38;;;-143.36;nan
39209;BME280;24929;51.982;4.664;2023-02-03T15:59:41;77884.47;;;-143.36;nan
39209;BME280;24929;51.982;4.664;2023-02-03T16:04:38;77884.47;;;-143.36;nan
39209;BME280;24929;51.982;4.664;2023-02-03T16:07:04;77878.44;;;-143.36;nan
39209;BME280;24929;51.982;4.664;2023-02-03T16:12:45;77936.66;;;-143.36;nan
39209;BME280;24929;51.982;4.664;2023-02-03T16:15:21;77878.44;;;-143.36;nan
39209;BME280;24929;51.982;4.664;2023-02-03T16:17:53;77872.41;;;-143.36;nan
39209;BME280;24929;51.982;4.664;2023-02-03T16:20:23;77840.28;;;-143.36;nan
39209;BME280;24929;51.982;4.664;2023-02-03T16:23:01;77856.34;;;-143.36;nan
39209;BME280;24929;51.982;4.664;2023-02-03T16:25:30;77868.41;;;-143.36;nan
39209;BME280;24929;51.982;4.664;2023-02-03T16:30:51;77912.56;;;-143.36;nan
39209;BME280;24929;51.982;4.664;2023-02-03T16:33:36;77948.69;;;-143.36;nan
39209;BME280;24929;51.982;4.664;2023-02-03T16:36:20;77950.69;;;-143.36;nan
39209;BME280;24929;51.982;4.664;2023-02-03T16:39:10;77912.56;;;-143.36;nan
39209;BME280;24929;51.982;4.664;2023-02-03T16:41:56;77978.81;;;-143.36;nan
39209;BME280;24929;51.982;4.664;2023-02-03T16:44:40;77974.78;;;-143.36;nan